Saturday, November 17, 2018, 1:42 AM EST
Back to Local

KWAL, Wallops Flight Fac Airport

Location: Wallops Island, VA, United States Lat: 37.933
Local Time: 1:42 AM EST ( 6:42 GMT) Lon: -75.467
Time Zone: US/Eastern Elev: 39 ft

Show me the last for .
Show Decoded

2018-11-17 00:54 METAR KWAL 170554Z 31006KT 10SM CLR 06/01 A3011 RMK AO2 SLP193 T00560006 10089
                 20056 51014 =
2018-11-16 23:54 METAR KWAL 170454Z 33007KT 10SM CLR 06/01 A3010 RMK AO2 SLP191 T00610011
                 401170056 =
2018-11-16 22:54 METAR KWAL 170354Z 33005KT 10SM CLR 06/02 A3009 RMK AO2 SLP186 T00610022 =
2018-11-16 21:54 METAR KWAL 170254Z 00000KT 10SM FEW250 07/03 A3007 RMK AO2 SLP179 T00720028
                 53028 =
2018-11-16 20:54 METAR KWAL 170154Z AUTO 29003KT 10SM CLR 08/03 A3004 RMK AO2 SLP168 T00780028 =
2018-11-16 19:54 METAR KWAL 170054Z AUTO 26004KT 10SM CLR 08/03 A3002 RMK AO2 SLP161 T00830028 =
2018-11-16 18:54 METAR KWAL 162354Z AUTO 24004KT 10SM CLR 08/03 A2999 RMK AO2 SLP151 T00780033
                 10117 20078 53022 =
2018-11-16 17:54 METAR KWAL 162254Z AUTO 23004KT 10SM CLR 08/03 A2997 RMK AO2 SLP145 T00830028 =
2018-11-16 16:54 METAR KWAL 162154Z AUTO 25004KT 10SM CLR 10/02 A2994 RMK AO2 SLP134 T01000022 =
2018-11-16 15:54 METAR KWAL 162054Z AUTO 27006KT 10SM CLR 11/02 A2992 RMK AO2 SLP129 T01110022
                 53008 =
2018-11-16 14:54 METAR KWAL 161954Z AUTO 27007G16KT 10SM CLR 12/02 A2990 RMK AO2 SLP122 T01170022
                 =
2018-11-16 13:54 METAR KWAL 161854Z AUTO 27014G20KT 10SM CLR 11/02 A2989 RMK AO2 SLP117 T01110017
                 =
2018-11-16 12:54 METAR KWAL 161754Z AUTO 26011G21KT 230V310 10SM CLR 11/01 A2990 RMK AO2 SLP120
                 T01060011 10106 20061 50002 =
2018-11-16 11:54 METAR KWAL 161654Z AUTO 29015G25KT 10SM SCT032 10/02 A2990 RMK AO2 SLP123
                 T01000017 =
2018-11-16 10:54 METAR KWAL 161554Z AUTO 30012G22KT 10SM SCT031 09/02 A2990 RMK AO2 PK WND
                 29026/1500 SLP121 T00940017 =
2018-11-16 09:54 METAR KWAL 161454Z AUTO 29014G24KT 10SM SCT033 09/02 A2989 RMK AO2 SLP118
                 T00890017 51026 =
2018-11-16 08:54 METAR KWAL 161354Z AUTO 26012G20KT 10SM FEW024 SCT033 08/02 A2989 RMK AO2 SLP117
                 T00780017 =
2018-11-16 07:54 METAR KWAL 161254Z AUTO 29013G19KT 10SM FEW028 SCT032 07/02 A2985 RMK AO2 SLP105
                 T00670017 =
2018-11-16 06:54 METAR KWAL 161154Z AUTO 28015G28KT 10SM SCT028 SCT035 06/01 A2981 RMK AO2 PK WND
                 27035/1120 SLP092 60000 70128 T00610011 10083 20056 53044 =
2018-11-16 05:54 METAR KWAL 161054Z AUTO 27017G26KT SCT024 BKN031 06/02 A2977 RMK AO2 PK WND
                 30027/1007 SLP077 T00610017 $ =
2018-11-16 05:25 METAR KWAL 161025Z AUTO 27015G25KT FEW016 SCT023 BKN031 06/02 A2975 RMK AO2 PK
                 WND 30027/1007 T00610022 $ =
2018-11-16 05:12 METAR KWAL 161012Z AUTO 27016G27KT FEW014 BKN022 OVC031 06/02 A2974 RMK AO2 PK
                 WND 30027/1007 T00610022 $ =
2018-11-16 04:54 METAR KWAL 160954Z AUTO 26012G23KT BKN012 OVC022 06/03 A2972 RMK AO2 PK WND
                 27028/0928 SLP062 T00610028 $ =
2018-11-16 03:54 METAR KWAL 160854Z AUTO 28017G27KT OVC012 06/03 A2968 RMK AO2 PK WND 25033/0755
                 SLP048 60000 T00560028 51022 $ =
2018-11-16 02:54 METAR KWAL 160754Z AUTO 26019G26KT OVC011 06/03 A2967 RMK AO2 PK WND 27034/0700
                 SLP043 T00610033 $ =
2018-11-16 02:09 METAR KWAL 160709Z AUTO 25016G34KT OVC010 07/04 A2965 RMK AO2 PK WND 27034/0700
                 CIG 006V013 T00670039 $ =
2018-11-16 01:54 METAR KWAL 160654Z AUTO 25020G29KT OVC006 07/05 A2964 RMK AO2 PK WND 25030/0636
                 RAE04 SLP033 P0000 T00670050 $ =
2018-11-16 01:47 METAR KWAL 160647Z AUTO 24015G30KT OVC006 07/05 A2963 RMK AO2 PK WND 25030/0636
                 RAE04 P0000 T00720050 $ =

Support USWX by starting your Amazon purchase here.